Sterling, MA (01564)

1:01 AM EST on December 08, 2016 (GMT -0500)
Beaman Rd | | Change Station

Elev 659 ft 42.44 °N, 71.78 °W | Updated 4 seconds ago

Mostly Cloudy
Mostly Cloudy
32.7 °F
Feels Like 33 °F
N
0.0
Wind Variable Wind from SSW
Gusts 1.0 mph

Today
High -- | Low -- °F
--% Chance of Precip.
Yesterday
High -- | Low -- °F
Precip. -- in
Pressure 29.97 in
Visibility 9.0 miles
Clouds Clear
Windchill 33 °F
Dew Point 31 °F
Humidity 92%
Rainfall 0.00 in
Snow Depth Not available.
7:04 AM 4:14 PM
First Quarter, 60% visible
METAR KFIT 080552Z AUTO 00000KT 9SM CLR 02/M01 A2995 RMK AO2 SLP147 T00171011 10022 21011 56012
Pressure 29.97 in
Visibility 9.0 miles
Clouds Clear
Windchill 33 °F
Dew Point 31 °F
Humidity 92%
Rainfall 0.00 in
Snow Depth Not available.
7:04 AM 4:14 PM
First Quarter, 60% visible
METAR KFIT 080552Z AUTO 00000KT 9SM CLR 02/M01 A2995 RMK AO2 SLP147 T00171011 10022 21011 56012

10-Day Weather Forecast

Almanac

Astronomy

Dec. 08, 2016 Rise Set
Actual Time
Civil Twilight
Nautical Twilight
Astronomical Twilight
Moon
Length of Visible Light
Length of Day
Tomorrow will be .
, % of the Moon is Illuminated

Today's Extremes

State Highs State Lows

Community

WunderPhotos

Upload Photos

1,956,259 photos uploaded!

WunderBlog® & News

Nearby

Air Quality

  Air Quality AQ Index Pollutant
Not available.

Snow Depth

Station Depth Elevation

Earthquake Activity

City Distance Mag. Time & Date
Minimum magnitude displayed is 2.5.

Coastal Water Temperatures

Place Temperature

Stations

Nearby Weather Stations

Station Location Temp. Windchill Dew Point Humidity Wind Precip. Elev Updated Type
                   

Watches & Warnings

There are currently no watches in effect.